Time;durP1;ratioP1;P1;durP2;ratioP2;P2;SDS_P1;SDS_P2;PMS_P1;PMS_P2;Temp;Humidity;BMP_temperature;BMP_pressure;BME280_temperature;BME280_humidity;BME280_pressure;Samples;Min_cycle;Max_cycle;Signal;HPM_P1;HPM_P2
2022/09/12 00:01:05;;;;;;;20.40;16.05;;;16.10;99.90;;;;;;4959095;28;20217;-87
2022/09/12 00:03:32;;;;;;;21.05;16.40;;;16.10;99.90;;;;;;4931915;29;20210;-87
2022/09/12 00:06:00;;;;;;;20.65;15.20;;;16.00;99.90;;;;;;4930491;29;20213;-87
2022/09/12 00:08:32;;;;;;;21.52;15.15;;;16.00;99.90;;;;;;4921537;29;20207;-87
2022/09/12 00:11:05;;;;;;;20.50;15.07;;;15.90;99.90;;;;;;4931561;29;20220;-87
2022/09/12 00:13:32;;;;;;;19.88;15.35;;;15.90;99.90;;;;;;4928159;29;20692;-87
2022/09/12 00:16:00;;;;;;;19.08;15.48;;;15.90;99.90;;;;;;4955741;28;20216;-87
2022/09/12 00:18:28;;;;;;;21.15;15.98;;;15.90;99.90;;;;;;4944223;29;20201;-87
2022/09/12 00:20:55;;;;;;;22.80;16.52;;;15.90;99.90;;;;;;4958758;28;20222;-87
2022/09/12 00:23:23;;;;;;;19.70;15.07;;;15.80;99.90;;;;;;4945448;29;20197;-87
2022/09/12 00:25:51;;;;;;;19.38;15.68;;;15.70;99.90;;;;;;4928778;29;20202;-87
2022/09/12 00:28:19;;;;;;;18.02;15.30;;;15.70;99.90;;;;;;4922198;29;20191;-88
2022/09/12 00:30:50;;;;;;;16.15;13.90;;;15.70;99.90;;;;;;4945135;29;20587;-87
2022/09/12 00:33:18;;;;;;;18.88;14.20;;;15.60;99.90;;;;;;4928892;29;20197;-88
2022/09/12 00:35:47;;;;;;;20.67;16.17;;;15.60;99.90;;;;;;4941754;29;20223;-87
2022/09/12 00:38:15;;;;;;;22.40;16.23;;;15.50;99.90;;;;;;4922091;29;20233;-87
2022/09/12 00:40:43;;;;;;;19.85;15.18;;;15.60;99.90;;;;;;4926495;29;20230;-86
2022/09/12 00:43:15;;;;;;;19.42;15.63;;;15.60;99.90;;;;;;4927794;29;20209;-86
2022/09/12 00:45:42;;;;;;;20.17;15.60;;;15.50;99.90;;;;;;4925051;29;20206;-86
2022/09/12 00:48:22;;;;;;;20.65;15.63;;;15.70;99.90;;;;;;4925902;29;20198;-87
2022/09/12 00:50:50;;;;;;;17.88;14.23;;;15.70;99.90;;;;;;4955115;28;20233;-86
2022/09/12 00:53:18;;;;;;;18.48;14.18;;;15.80;99.90;;;;;;4920438;29;20202;-86
2022/09/12 00:55:49;;;;;;;18.83;14.68;;;15.90;99.90;;;;;;4920473;29;20202;-86
2022/09/12 00:58:22;;;;;;;18.17;14.68;;;15.70;99.90;;;;;;4928512;29;20221;-86
2022/09/12 01:00:50;;;;;;;17.95;13.98;;;15.70;99.90;;;;;;4925970;29;20226;-86
2022/09/12 01:03:21;;;;;;;19.55;14.88;;;15.70;99.90;;;;;;4929443;29;20205;-86
2022/09/12 01:05:56;;;;;;;18.75;14.70;;;15.70;99.90;;;;;;4924543;29;20206;-86
2022/09/12 01:08:24;;;;;;;18.88;14.43;;;15.80;99.90;;;;;;4941938;29;20208;-87
2022/09/12 01:10:52;;;;;;;20.58;15.13;;;15.90;99.90;;;;;;4919490;29;20230;-87
2022/09/12 01:13:22;;;;;;;19.45;15.25;;;15.80;99.90;;;;;;4934309;29;20220;-86
2022/09/12 01:15:50;;;;;;;18.42;13.82;;;15.70;99.90;;;;;;4928482;29;20198;-87
2022/09/12 01:18:24;;;;;;;19.90;14.70;;;15.60;99.90;;;;;;4924134;29;20263;-87
2022/09/12 01:21:04;;;;;;;17.88;14.88;;;15.70;99.90;;;;;;4924722;29;20214;-86
2022/09/12 01:24:02;;;;;;;17.83;14.02;;;15.70;99.90;;;;;;4921861;29;20201;-86
2022/09/12 01:27:08;;;;;;;21.63;15.65;;;15.70;99.90;;;;;;4940207;29;20205;-87
2022/09/12 01:29:56;;;;;;;18.80;14.35;;;15.70;99.90;;;;;;4919730;29;20222;-86
2022/09/12 01:32:33;;;;;;;17.58;14.43;;;15.50;99.90;;;;;;4957646;28;20225;-86
2022/09/12 01:35:15;;;;;;;18.55;15.07;;;15.50;99.90;;;;;;4925849;29;20202;-87
2022/09/12 01:37:47;;;;;;;21.27;14.50;;;15.40;99.90;;;;;;4924626;29;20229;-86
2022/09/12 01:40:22;;;;;;;20.58;14.70;;;15.40;99.90;;;;;;4955639;28;20225;-86
2022/09/12 01:42:57;;;;;;;18.08;14.82;;;15.30;99.90;;;;;;4928760;29;20198;-86
2022/09/12 01:45:31;;;;;;;15.73;13.55;;;15.20;99.90;;;;;;4933496;29;20205;-86
2022/09/12 01:48:06;;;;;;;17.98;13.68;;;15.10;99.90;;;;;;4935174;29;20209;-86
2022/09/12 01:50:40;;;;;;;20.20;14.23;;;15.00;99.90;;;;;;4932027;29;20260;-86
2022/09/12 01:53:13;;;;;;;15.52;13.50;;;14.90;99.90;;;;;;4956075;28;20200;-86
2022/09/12 01:55:46;;;;;;;19.20;14.40;;;14.90;99.90;;;;;;4934698;29;20206;-86
2022/09/12 01:58:17;;;;;;;15.25;12.75;;;14.80;99.90;;;;;;4930594;29;20222;-87
2022/09/12 02:00:50;;;;;;;15.23;13.07;;;14.80;99.90;;;;;;4926985;29;20215;-86
2022/09/12 02:03:28;;;;;;;18.77;13.43;;;14.90;99.90;;;;;;4930263;29;20201;-86
2022/09/12 02:06:00;;;;;;;17.20;13.88;;;14.70;99.90;;;;;;4927803;29;20194;-86
2022/09/12 02:08:31;;;;;;;17.77;13.63;;;14.70;99.90;;;;;;4944741;29;20207;-87
2022/09/12 02:11:06;;;;;;;17.23;13.27;;;14.60;99.90;;;;;;4929558;29;20224;-86
2022/09/12 02:13:38;;;;;;;16.40;12.95;;;14.60;99.90;;;;;;4949735;29;20206;-87
2022/09/12 02:16:12;;;;;;;15.13;12.10;;;14.60;99.90;;;;;;4932759;29;20217;-86
2022/09/12 02:18:46;;;;;;;16.42;12.32;;;14.60;99.90;;;;;;4931779;29;20227;-86
2022/09/12 02:21:15;;;;;;;16.50;12.75;;;14.60;99.90;;;;;;4930370;29;20232;-86
2022/09/12 02:23:47;;;;;;;18.52;14.02;;;14.50;99.90;;;;;;4929243;29;20206;-86
2022/09/12 02:26:21;;;;;;;14.18;12.60;;;14.50;99.90;;;;;;4930016;29;20665;-86
2022/09/12 02:28:50;;;;;;;14.18;12.00;;;14.50;99.90;;;;;;4928213;29;20205;-86
2022/09/12 02:31:23;;;;;;;16.75;13.15;;;14.50;99.90;;;;;;4929339;29;20225;-86
2022/09/12 02:34:03;;;;;;;18.17;13.50;;;14.40;99.90;;;;;;4927050;29;20215;-86
2022/09/12 02:36:39;;;;;;;18.60;13.77;;;14.40;99.90;;;;;;4927837;29;20209;-87
2022/09/12 02:39:08;;;;;;;17.00;13.10;;;14.50;99.90;;;;;;4930036;29;20220;-86
2022/09/12 02:41:36;;;;;;;16.55;12.48;;;14.50;99.90;;;;;;4924723;29;20539;-86
2022/09/12 02:44:05;;;;;;;20.48;13.77;;;14.60;99.90;;;;;;4932449;29;20205;-86
2022/09/12 02:46:37;;;;;;;17.02;13.98;;;14.60;99.90;;;;;;4921616;29;20702;-86
2022/09/12 02:49:07;;;;;;;15.00;12.13;;;14.60;99.90;;;;;;4945500;29;20198;-86
2022/09/12 02:51:34;;;;;;;16.88;12.27;;;14.60;99.90;;;;;;4928408;29;20202;-86
2022/09/12 02:54:05;;;;;;;15.93;13.30;;;14.60;99.90;;;;;;4925930;29;20207;-87
2022/09/12 02:56:36;;;;;;;16.88;13.45;;;14.60;99.90;;;;;;4925295;29;20209;-86
2022/09/12 02:59:11;;;;;;;17.50;13.77;;;14.60;99.90;;;;;;4921115;29;20229;-87
2022/09/12 03:01:58;;;;;;;16.80;12.68;;;14.60;99.90;;;;;;4916212;29;20658;-86
2022/09/12 03:04:40;;;;;;;16.48;13.70;;;14.50;99.90;;;;;;4938119;29;20206;-87
2022/09/12 03:07:17;;;;;;;16.52;13.73;;;14.60;99.90;;;;;;4928824;29;20217;-88
2022/09/12 03:09:49;;;;;;;16.83;13.30;;;14.50;99.90;;;;;;4939831;28;20241;-87
2022/09/12 03:12:32;;;;;;;16.23;13.02;;;14.50;99.90;;;;;;4925954;29;20218;-87
2022/09/12 03:15:12;;;;;;;17.20;13.52;;;14.70;99.90;;;;;;4924859;29;20202;-87
2022/09/12 03:17:49;;;;;;;19.27;13.32;;;14.70;99.90;;;;;;4919714;29;20194;-87
2022/09/12 03:20:25;;;;;;;18.42;13.13;;;14.80;99.90;;;;;;4933336;29;20686;-87
2022/09/12 03:22:55;;;;;;;18.25;13.95;;;14.80;99.90;;;;;;4919333;29;20206;-87
2022/09/12 03:25:28;;;;;;;15.18;12.88;;;14.80;99.90;;;;;;4919912;29;20600;-87
2022/09/12 03:28:05;;;;;;;15.68;13.10;;;14.80;99.90;;;;;;4930473;29;20206;-87
2022/09/12 03:30:38;;;;;;;16.65;13.57;;;14.90;99.90;;;;;;4931199;29;20225;-88
2022/09/12 03:33:05;;;;;;;17.10;12.85;;;14.90;99.90;;;;;;4952140;28;20198;-87
2022/09/12 03:35:34;;;;;;;16.45;12.85;;;14.90;99.90;;;;;;4923131;29;20237;-87
2022/09/12 03:38:02;;;;;;;17.25;13.73;;;14.80;99.90;;;;;;4925851;29;20674;-87
2022/09/12 03:40:30;;;;;;;16.20;13.10;;;14.90;99.90;;;;;;4919314;29;20595;-86
2022/09/12 03:43:03;;;;;;;17.30;13.57;;;14.80;99.90;;;;;;4933487;29;20206;-86
2022/09/12 03:45:31;;;;;;;16.42;13.02;;;14.90;99.90;;;;;;4932111;29;20217;-87
2022/09/12 03:47:59;;;;;;;15.40;12.23;;;14.80;99.90;;;;;;4932938;29;20217;-86
2022/09/12 03:50:27;;;;;;;14.45;12.63;;;14.80;99.90;;;;;;4925938;29;20226;-86
2022/09/12 03:52:58;;;;;;;15.50;12.65;;;14.80;99.90;;;;;;4929895;29;20666;-86
2022/09/12 03:55:26;;;;;;;16.23;12.80;;;15.10;99.90;;;;;;4945146;29;20205;-86
2022/09/12 03:57:54;;;;;;;14.13;11.13;;;15.00;99.90;;;;;;4933043;29;20217;-86
2022/09/12 04:00:22;;;;;;;17.55;13.18;;;15.10;99.90;;;;;;4936713;29;20214;-87
2022/09/12 04:02:54;;;;;;;14.02;11.50;;;15.00;99.90;;;;;;4938416;29;20214;-81
2022/09/12 04:05:22;;;;;;;14.48;11.82;;;15.00;99.90;;;;;;4954012;29;20201;-81
2022/09/12 04:07:50;;;;;;;15.90;12.32;;;15.10;99.90;;;;;;4933907;29;20201;-81
2022/09/12 04:10:19;;;;;;;14.63;12.10;;;15.10;99.90;;;;;;4938056;29;20225;-82
2022/09/12 04:12:46;;;;;;;16.65;12.52;;;15.00;99.90;;;;;;4942757;29;20210;-81
2022/09/12 04:15:14;;;;;;;16.48;12.13;;;14.90;99.90;;;;;;4933288;29;20207;-81
2022/09/12 04:17:41;;;;;;;15.95;12.60;;;15.00;99.90;;;;;;4954683;29;20199;-82
2022/09/12 04:20:09;;;;;;;14.32;12.48;;;14.90;99.90;;;;;;4937032;29;20230;-81
2022/09/12 04:22:37;;;;;;;16.00;12.80;;;14.90;99.90;;;;;;4930044;29;20202;-81
2022/09/12 04:25:05;;;;;;;14.27;11.75;;;14.90;99.90;;;;;;4931011;29;20201;-81
2022/09/12 04:27:34;;;;;;;14.27;11.82;;;14.90;99.90;;;;;;4932483;29;20710;-81
2022/09/12 04:30:02;;;;;;;14.52;12.20;;;14.80;99.90;;;;;;4933760;29;20226;-81
2022/09/12 04:32:30;;;;;;;15.50;12.13;;;14.90;99.90;;;;;;4936847;29;20213;-81
2022/09/12 04:34:58;;;;;;;14.27;11.82;;;15.00;99.90;;;;;;4935024;29;20209;-82
2022/09/12 04:37:25;;;;;;;14.07;11.07;;;14.90;99.90;;;;;;4935143;29;20205;-81
2022/09/12 04:39:56;;;;;;;13.23;10.70;;;15.00;99.90;;;;;;4933520;29;20233;-81
2022/09/12 04:42:23;;;;;;;13.95;11.02;;;15.00;99.90;;;;;;4934408;29;20212;-81
2022/09/12 04:44:53;;;;;;;13.05;10.82;;;15.00;99.90;;;;;;4936381;29;20567;-81
2022/09/12 04:47:22;;;;;;;14.75;10.45;;;15.10;99.90;;;;;;4933410;29;20207;-82
2022/09/12 04:49:49;;;;;;;12.57;10.23;;;15.00;99.90;;;;;;4931939;29;20698;-81
2022/09/12 04:52:17;;;;;;;13.88;10.60;;;15.00;99.90;;;;;;4957123;28;20662;-81
2022/09/12 04:54:44;;;;;;;12.68;10.25;;;15.00;99.90;;;;;;4933670;29;20214;-83
2022/09/12 04:57:12;;;;;;;12.88;10.93;;;15.00;99.90;;;;;;4951559;29;20595;-81
2022/09/12 04:59:40;;;;;;;14.23;10.65;;;15.10;99.90;;;;;;4958446;28;20238;-81
2022/09/12 05:02:08;;;;;;;12.60;10.25;;;15.10;99.90;;;;;;4932180;29;20209;-81
2022/09/12 05:04:36;;;;;;;14.23;9.68;;;15.10;99.90;;;;;;4947917;29;20205;-81
2022/09/12 05:07:04;;;;;;;12.85;10.30;;;15.10;99.90;;;;;;4929352;29;20685;-81
2022/09/12 05:09:32;;;;;;;13.43;10.45;;;15.10;99.90;;;;;;4927875;29;20217;-81
2022/09/12 05:11:59;;;;;;;13.73;11.05;;;15.20;99.90;;;;;;4946384;29;20205;-81
2022/09/12 05:14:27;;;;;;;12.95;10.15;;;15.10;99.90;;;;;;4928511;29;20694;-82
2022/09/12 05:16:58;;;;;;;12.23;9.93;;;15.10;99.90;;;;;;4929057;29;20209;-81
2022/09/12 05:19:27;;;;;;;12.70;10.20;;;15.10;99.90;;;;;;4944950;29;20225;-81
2022/09/12 05:21:55;;;;;;;11.27;9.50;;;15.20;99.90;;;;;;4946089;29;20213;-81
2022/09/12 05:24:23;;;;;;;12.70;10.25;;;15.30;99.90;;;;;;4946505;29;20658;-81
2022/09/12 05:26:50;;;;;;;11.75;10.07;;;15.30;99.90;;;;;;4944424;29;20198;-81
2022/09/12 05:29:18;;;;;;;11.60;9.25;;;15.30;99.90;;;;;;4943724;29;20197;-81
2022/09/12 05:31:51;;;;;;;12.73;9.63;;;15.30;99.90;;;;;;4927192;29;20663;-80
2022/09/12 05:34:19;;;;;;;13.18;10.15;;;15.30;99.90;;;;;;4925533;29;20585;-81
2022/09/12 05:36:48;;;;;;;11.18;9.18;;;15.30;99.90;;;;;;4926331;29;20674;-81
2022/09/12 05:39:17;;;;;;;10.48;9.35;;;15.30;99.90;;;;;;4924899;29;20596;-82
2022/09/12 05:41:45;;;;;;;11.73;8.85;;;15.40;99.90;;;;;;4925308;29;20209;-80
2022/09/12 05:44:14;;;;;;;12.73;10.32;;;15.40;99.90;;;;;;4925708;29;20202;-82
2022/09/12 05:46:43;;;;;;;12.10;9.32;;;15.30;99.90;;;;;;4957236;29;20198;-81
2022/09/12 05:49:12;;;;;;;12.30;9.68;;;15.40;99.90;;;;;;4928801;29;20195;-81
2022/09/12 05:51:42;;;;;;;12.98;9.88;;;15.30;99.90;;;;;;4923514;29;20210;-81
2022/09/12 05:54:13;;;;;;;11.40;9.45;;;15.40;99.90;;;;;;4920728;29;20202;-84
2022/09/12 05:56:44;;;;;;;11.05;9.85;;;15.40;99.90;;;;;;4920768;29;20203;-85
2022/09/12 05:59:13;;;;;;;11.55;8.90;;;15.40;99.90;;;;;;4920931;29;20716;-85
2022/09/12 06:01:41;;;;;;;10.32;9.20;;;15.40;99.90;;;;;;4934864;29;20209;-84
2022/09/12 06:04:10;;;;;;;10.18;8.75;;;15.50;99.90;;;;;;4920127;29;20663;-85
2022/09/12 06:06:40;;;;;;;10.00;8.15;;;15.70;99.90;;;;;;4921517;29;20662;-85
2022/09/12 06:09:09;;;;;;;14.63;9.45;;;15.80;99.90;;;;;;4920764;29;20198;-84
2022/09/12 06:11:39;;;;;;;11.20;9.35;;;15.80;99.90;;;;;;4924300;29;20199;-84
2022/09/12 06:14:07;;;;;;;17.38;9.40;;;15.80;99.90;;;;;;4924070;29;20213;-84
2022/09/12 06:16:36;;;;;;;11.10;8.98;;;15.90;99.90;;;;;;4940806;28;20214;-85
2022/09/12 06:19:06;;;;;;;11.95;8.63;;;16.00;99.90;;;;;;4926550;29;20202;-85
2022/09/12 06:21:37;;;;;;;10.82;9.02;;;16.00;99.90;;;;;;4930329;29;20202;-85
2022/09/12 06:24:06;;;;;;;10.00;8.35;;;16.10;99.90;;;;;;4924668;29;20206;-84
2022/09/12 06:26:35;;;;;;;9.10;8.18;;;16.20;99.90;;;;;;4956168;28;20571;-84
2022/09/12 06:29:03;;;;;;;10.70;9.10;;;16.30;99.90;;;;;;4921457;29;20325;-85
2022/09/12 06:31:33;;;;;;;9.80;8.48;;;16.30;99.90;;;;;;4924709;29;20202;-85
2022/09/12 06:34:02;;;;;;;10.43;9.15;;;16.40;99.90;;;;;;4951475;29;20570;-85
2022/09/12 06:36:32;;;;;;;11.77;9.40;;;16.50;99.90;;;;;;4925365;29;20205;-85
2022/09/12 06:39:01;;;;;;;11.75;9.00;;;16.60;99.90;;;;;;4929816;29;20202;-85
2022/09/12 06:41:29;;;;;;;10.50;8.43;;;16.70;99.90;;;;;;4927269;29;20233;-85
2022/09/12 06:43:59;;;;;;;11.15;8.70;;;16.70;99.90;;;;;;4946209;29;20209;-85
2022/09/12 06:46:27;;;;;;;11.63;9.63;;;16.70;99.90;;;;;;4942109;29;20708;-85
2022/09/12 06:48:56;;;;;;;13.18;8.82;;;16.80;99.90;;;;;;4917891;29;20289;-84
2022/09/12 06:51:24;;;;;;;10.07;8.15;;;16.90;99.90;;;;;;4923153;29;20218;-86
2022/09/12 06:53:54;;;;;;;10.98;9.00;;;16.90;99.90;;;;;;4917972;29;20202;-85
2022/09/12 06:56:23;;;;;;;12.20;9.07;;;16.90;99.90;;;;;;4957542;28;20201;-85
2022/09/12 06:58:51;;;;;;;10.95;9.10;;;16.90;99.90;;;;;;4928673;29;20214;-85
2022/09/12 07:01:22;;;;;;;11.60;9.23;;;17.00;99.90;;;;;;4937371;29;20211;-85
2022/09/12 07:03:51;;;;;;;11.82;8.90;;;17.00;99.90;;;;;;4925245;29;20218;-85
2022/09/12 07:06:20;;;;;;;12.02;9.23;;;17.10;99.90;;;;;;4929609;29;20198;-85
2022/09/12 07:08:48;;;;;;;10.57;8.57;;;17.10;99.90;;;;;;4924079;29;20218;-85
2022/09/12 07:11:17;;;;;;;12.23;9.65;;;17.10;99.90;;;;;;4935076;29;20596;-85
2022/09/12 07:13:47;;;;;;;11.77;8.95;;;17.20;99.90;;;;;;4940557;29;20201;-86
2022/09/12 07:16:14;;;;;;;9.68;8.10;;;17.30;99.90;;;;;;4922289;29;20202;-85
2022/09/12 07:18:45;;;;;;;10.88;9.07;;;17.30;99.90;;;;;;4930808;29;20202;-85
2022/09/12 07:21:14;;;;;;;12.23;8.82;;;17.40;99.90;;;;;;4934022;29;20230;-85
2022/09/12 07:23:42;;;;;;;10.68;8.95;;;17.50;99.90;;;;;;4938455;29;20217;-84
2022/09/12 07:26:12;;;;;;;11.35;8.90;;;17.50;99.90;;;;;;4947337;29;20194;-85
2022/09/12 07:28:40;;;;;;;10.77;9.10;;;17.60;99.90;;;;;;4962980;28;20213;-84
2022/09/12 07:31:09;;;;;;;10.55;8.23;;;17.50;99.90;;;;;;4932023;29;20217;-84
2022/09/12 07:33:37;;;;;;;10.25;8.70;;;17.60;99.90;;;;;;4964818;28;20202;-85
2022/09/12 07:36:09;;;;;;;11.30;9.15;;;17.70;99.90;;;;;;4928714;29;20209;-85
2022/09/12 07:38:37;;;;;;;9.18;8.30;;;17.80;99.90;;;;;;4930157;29;20202;-84
2022/09/12 07:41:11;;;;;;;13.07;10.10;;;17.80;99.90;;;;;;4942346;29;20221;-84
2022/09/12 07:43:38;;;;;;;9.82;8.77;;;17.80;99.90;;;;;;4920990;29;20225;-84
2022/09/12 07:46:06;;;;;;;12.40;9.43;;;17.90;99.90;;;;;;4921131;29;20202;-84
2022/09/12 07:48:36;;;;;;;12.98;9.40;;;17.90;99.90;;;;;;4940588;29;20210;-85
2022/09/12 07:51:07;;;;;;;11.73;10.02;;;18.00;99.90;;;;;;4908647;29;20219;-84
2022/09/12 07:53:36;;;;;;;10.68;8.60;;;17.90;99.90;;;;;;4951450;29;20217;-84
2022/09/12 07:56:05;;;;;;;11.43;9.13;;;17.90;99.90;;;;;;4928998;29;20197;-85
2022/09/12 07:58:35;;;;;;;12.52;9.38;;;17.90;99.90;;;;;;4924962;29;20218;-85
2022/09/12 08:01:04;;;;;;;11.77;9.20;;;17.90;99.90;;;;;;4927055;29;20584;-84
2022/09/12 08:03:32;;;;;;;12.82;9.65;;;17.90;99.90;;;;;;4916365;29;20207;-84
2022/09/12 08:06:09;;;;;;;10.80;9.43;;;18.10;99.90;;;;;;4947719;28;20689;-84
2022/09/12 08:08:37;;;;;;;12.10;9.25;;;18.10;99.90;;;;;;4926720;29;20210;-85
2022/09/12 08:11:07;;;;;;;11.60;9.50;;;18.20;99.90;;;;;;4945955;29;20221;-84
2022/09/12 08:13:36;;;;;;;12.10;9.35;;;18.20;99.90;;;;;;4925873;29;20207;-84
2022/09/12 08:16:07;;;;;;;10.35;8.98;;;18.20;99.90;;;;;;4943050;29;20206;-84
2022/09/12 08:18:35;;;;;;;10.65;8.90;;;18.30;99.90;;;;;;4937849;29;20663;-85
2022/09/12 08:21:09;;;;;;;11.88;9.88;;;18.30;99.90;;;;;;4935752;29;20229;-84
2022/09/12 08:23:37;;;;;;;10.10;8.65;;;18.40;99.90;;;;;;4918977;29;20198;-85
2022/09/12 08:26:05;;;;;;;11.90;9.25;;;18.40;99.90;;;;;;4919705;29;20199;-84
2022/09/12 08:28:34;;;;;;;11.90;9.15;;;18.40;99.90;;;;;;4919489;29;20202;-85
2022/09/12 08:31:02;;;;;;;10.43;8.35;;;18.40;99.90;;;;;;4922832;29;20221;-84
2022/09/12 08:33:32;;;;;;;13.10;10.05;;;18.50;99.90;;;;;;4931642;29;20221;-85
2022/09/12 08:36:05;;;;;;;11.70;9.70;;;18.50;99.90;;;;;;4929621;29;20676;-85
2022/09/12 08:38:34;;;;;;;11.40;9.05;;;18.60;99.90;;;;;;4927725;29;20686;-84
2022/09/12 08:41:08;;;;;;;10.35;8.57;;;18.60;99.90;;;;;;4923191;29;20605;-85
2022/09/12 08:43:53;;;;;;;14.32;10.98;;;18.70;99.90;;;;;;4921172;29;20565;-84
2022/09/12 08:46:24;;;;;;;11.52;8.70;;;18.70;99.90;;;;;;4929988;29;20205;-84
2022/09/12 08:48:52;;;;;;;11.55;9.07;;;18.60;99.90;;;;;;4938920;29;20202;-84
2022/09/12 08:51:20;;;;;;;11.65;9.02;;;18.50;99.90;;;;;;4934073;29;20229;-85
2022/09/12 08:53:53;;;;;;;12.18;9.65;;;18.60;99.90;;;;;;4930922;29;20206;-85
2022/09/12 08:56:20;;;;;;;13.07;8.88;;;18.60;99.90;;;;;;4944580;29;20201;-85
2022/09/12 08:58:48;;;;;;;13.48;9.75;;;18.70;99.90;;;;;;4927819;29;20576;-85
2022/09/12 09:01:24;;;;;;;14.95;9.45;;;18.80;99.90;;;;;;4926116;29;20214;-85
2022/09/12 09:04:16;;;;;;;11.13;9.55;;;18.90;99.90;;;;;;4929684;29;20200;-85
2022/09/12 09:07:06;;;;;;;11.50;9.43;;;19.00;99.90;;;;;;4929728;29;20214;-85
2022/09/12 09:09:48;;;;;;;11.30;8.90;;;19.00;99.90;;;;;;4958182;28;20230;-85
2022/09/12 09:12:23;;;;;;;10.00;8.13;;;19.00;99.90;;;;;;4925857;29;20198;-85
2022/09/12 09:15:20;;;;;;;12.20;9.15;;;19.10;99.90;;;;;;4955815;28;20205;-84
2022/09/12 09:17:53;;;;;;;14.05;9.13;;;19.10;99.90;;;;;;4957952;28;20696;-85
2022/09/12 09:20:28;;;;;;;10.40;8.57;;;19.30;99.90;;;;;;4930525;29;20230;-85
2022/09/12 09:23:01;;;;;;;10.60;9.20;;;19.40;99.90;;;;;;4929471;29;20197;-85
2022/09/12 09:25:40;;;;;;;10.70;8.60;;;19.50;99.90;;;;;;4930114;29;20217;-85
2022/09/12 09:28:15;;;;;;;10.73;8.20;;;19.60;99.90;;;;;;4926284;29;20579;-85
2022/09/12 09:30:44;;;;;;;9.75;7.97;;;19.60;99.90;;;;;;4956199;28;20222;-85
2022/09/12 09:33:28;;;;;;;10.07;7.90;;;19.60;99.90;;;;;;4923926;29;20199;-84
2022/09/12 09:36:00;;;;;;;10.80;7.85;;;19.70;99.90;;;;;;4952844;28;20199;-85
2022/09/12 09:38:39;;;;;;;8.57;7.25;;;19.70;99.90;;;;;;4922671;29;20206;-85
2022/09/12 09:41:23;;;;;;;9.20;8.13;;;20.00;99.90;;;;;;4926534;29;20228;-85
2022/09/12 09:43:51;;;;;;;11.52;8.40;;;20.20;99.90;;;;;;4940699;29;20221;-84
2022/09/12 09:46:18;;;;;;;10.05;7.63;;;20.20;99.90;;;;;;4924808;29;20207;-85
2022/09/12 09:48:49;;;;;;;10.00;8.10;;;20.40;99.90;;;;;;4935949;29;20203;-85
2022/09/12 09:51:26;;;;;;;9.27;7.03;;;20.50;99.90;;;;;;4928507;29;20232;-85
2022/09/12 09:53:56;;;;;;;9.32;7.10;;;20.30;99.90;;;;;;4950685;28;20213;-85
2022/09/12 09:56:32;;;;;;;6.72;6.07;;;20.40;99.90;;;;;;4953348;29;20203;-85
2022/09/12 09:59:10;;;;;;;7.05;6.35;;;20.40;99.90;;;;;;4955564;28;20217;-85
2022/09/12 10:01:43;;;;;;;6.45;5.75;;;20.50;99.90;;;;;;4939802;29;20210;-85
2022/09/12 10:04:19;;;;;;;7.20;6.30;;;20.70;99.90;;;;;;4927526;29;20682;-85
2022/09/12 10:06:47;;;;;;;6.60;6.00;;;20.80;99.90;;;;;;4948437;29;20190;-85
2022/09/12 10:09:20;;;;;;;6.68;5.85;;;20.90;99.90;;;;;;4951709;29;20209;-85
2022/09/12 10:11:51;;;;;;;6.07;5.47;;;20.80;99.90;;;;;;4925486;29;20198;-85
2022/09/12 10:14:38;;;;;;;5.65;5.15;;;20.90;99.90;;;;;;4930052;29;20202;-85
2022/09/12 10:17:30;;;;;;;5.15;4.38;;;21.00;99.90;;;;;;4961135;28;20570;-84
2022/09/12 10:19:59;;;;;;;5.75;4.88;;;21.10;99.90;;;;;;4924976;29;20598;-85
2022/09/12 10:22:28;;;;;;;4.50;4.07;;;21.00;99.90;;;;;;4931904;29;20225;-84
2022/09/12 10:24:59;;;;;;;4.68;4.28;;;20.80;99.90;;;;;;4934480;29;20206;-85
2022/09/12 10:27:31;;;;;;;5.10;4.60;;;21.10;99.90;;;;;;4933058;29;20206;-85
2022/09/12 10:30:03;;;;;;;5.63;5.13;;;21.30;99.90;;;;;;4911787;29;20245;-85
2022/09/12 10:32:37;;;;;;;4.80;4.38;;;21.30;99.90;;;;;;4927831;29;20210;-83
2022/09/12 10:35:08;;;;;;;4.90;4.40;;;21.50;99.90;;;;;;4916625;29;20205;-83
2022/09/12 10:37:38;;;;;;;4.72;4.30;;;21.60;99.90;;;;;;4938529;29;20185;-83
2022/09/12 10:40:20;;;;;;;4.90;4.50;;;21.70;99.90;;;;;;4936427;29;20229;-83
2022/09/12 10:42:51;;;;;;;4.88;4.10;;;21.50;99.90;;;;;;4919918;29;20206;-83
2022/09/12 10:45:27;;;;;;;4.30;3.90;;;21.40;99.90;;;;;;4930128;29;20205;-83
2022/09/12 10:47:58;;;;;;;4.32;3.83;;;21.50;99.90;;;;;;4932456;29;20692;-83
2022/09/12 10:50:29;;;;;;;3.47;3.17;;;21.80;99.90;;;;;;4963724;28;20728;-83
2022/09/12 10:53:15;;;;;;;5.07;3.35;;;21.80;99.90;;;;;;4925406;29;20210;-83
2022/09/12 10:55:56;;;;;;;3.33;3.13;;;21.90;99.90;;;;;;4926819;29;20213;-83
2022/09/12 10:58:40;;;;;;;3.40;3.10;;;22.00;99.90;;;;;;4940518;29;20206;-83
2022/09/12 11:01:14;;;;;;;3.58;3.20;;;22.10;98.80;;;;;;4935153;29;20241;-84
2022/09/12 11:03:56;;;;;;;4.80;4.18;;;22.30;97.80;;;;;;4925177;29;20206;-83
2022/09/12 11:06:33;;;;;;;3.63;3.33;;;22.50;97.80;;;;;;4939228;29;20202;-83
2022/09/12 11:09:09;;;;;;;3.55;3.08;;;22.80;97.80;;;;;;4921315;29;20210;-83
2022/09/12 11:11:47;;;;;;;4.15;2.90;;;22.60;97.30;;;;;;4950282;28;20205;-83
2022/09/12 11:14:27;;;;;;;3.83;2.90;;;22.50;97.60;;;;;;4933749;29;20209;-83
2022/09/12 11:17:01;;;;;;;3.53;3.22;;;22.50;97.20;;;;;;4951849;29;20559;-83
2022/09/12 11:19:53;;;;;;;4.03;2.80;;;22.50;97.20;;;;;;4911852;29;20229;-83
2022/09/12 11:22:33;;;;;;;3.67;3.30;;;22.70;97.30;;;;;;4933899;29;20682;-83
2022/09/12 11:25:21;;;;;;;3.30;3.00;;;23.10;96.80;;;;;;4910971;29;20319;-83
2022/09/12 11:28:15;;;;;;;2.95;2.70;;;23.40;95.80;;;;;;4931683;29;20206;-83
2022/09/12 11:30:55;;;;;;;3.30;3.00;;;23.40;94.90;;;;;;4915245;29;20224;-83
2022/09/12 11:33:38;;;;;;;3.05;2.85;;;23.40;94.70;;;;;;4919858;29;20198;-83
2022/09/12 11:36:11;;;;;;;3.85;3.15;;;23.40;94.50;;;;;;4921379;29;20203;-84
2022/09/12 11:39:00;;;;;;;3.05;2.85;;;23.20;95.10;;;;;;4935783;29;20198;-83
2022/09/12 11:41:32;;;;;;;4.15;3.13;;;23.30;95.10;;;;;;4921571;29;20229;-83
2022/09/12 11:44:08;;;;;;;2.97;2.78;;;23.50;94.70;;;;;;4919578;29;20210;-84
2022/09/12 11:46:42;;;;;;;3.22;2.88;;;23.60;94.50;;;;;;4912845;29;20584;-83
2022/09/12 11:49:20;;;;;;;3.65;3.28;;;23.60;94.90;;;;;;4944333;29;20568;-84
2022/09/12 11:51:53;;;;;;;3.70;3.33;;;23.30;94.20;;;;;;4921216;29;20206;-83
2022/09/12 11:54:26;;;;;;;4.13;3.10;;;23.40;95.20;;;;;;4915799;29;20207;-83
2022/09/12 11:57:03;;;;;;;3.95;3.38;;;23.40;95.00;;;;;;4920489;29;20202;-84
2022/09/12 11:59:38;;;;;;;4.82;3.60;;;23.30;94.90;;;;;;4939522;29;20249;-84
2022/09/12 12:02:12;;;;;;;2.80;2.60;;;23.70;95.50;;;;;;4921174;29;20227;-84
2022/09/12 12:04:46;;;;;;;4.78;2.95;;;24.00;95.20;;;;;;4951444;29;20209;-83
2022/09/12 12:07:17;;;;;;;3.53;2.88;;;24.00;94.40;;;;;;4927289;29;20202;-84
2022/09/12 12:09:48;;;;;;;3.20;2.90;;;24.00;93.10;;;;;;4942774;29;20229;-84
2022/09/12 12:12:23;;;;;;;3.15;2.90;;;23.90;94.70;;;;;;4918071;29;20214;-84
2022/09/12 12:14:53;;;;;;;3.45;3.20;;;24.00;94.00;;;;;;4935476;29;20213;-83
2022/09/12 12:17:24;;;;;;;3.25;2.95;;;24.30;92.50;;;;;;4921334;29;20206;-83
2022/09/12 12:19:59;;;;;;;3.67;3.38;;;24.50;91.80;;;;;;4920829;29;20214;-84
2022/09/12 12:22:27;;;;;;;2.90;2.70;;;24.20;92.90;;;;;;4920044;29;20214;-84
2022/09/12 12:25:23;;;;;;;3.20;2.90;;;24.20;91.80;;;;;;4929501;29;20217;-83
2022/09/12 12:27:58;;;;;;;2.92;2.72;;;24.50;91.60;;;;;;4927064;29;20209;-84
2022/09/12 12:31:03;;;;;;;3.45;3.15;;;24.40;91.00;;;;;;4924272;29;20245;-83
2022/09/12 12:34:07;;;;;;;4.50;3.20;;;24.10;91.30;;;;;;4933543;29;20586;-83
2022/09/12 12:36:49;;;;;;;3.20;2.90;;;23.80;91.10;;;;;;4915908;29;20217;-83
2022/09/12 12:39:59;;;;;;;3.63;3.33;;;24.20;91.50;;;;;;4916603;29;20209;-83
2022/09/12 12:43:15;;;;;;;3.40;3.15;;;24.20;91.60;;;;;;4917990;29;20221;-83
2022/09/12 12:46:11;;;;;;;3.58;3.28;;;23.90;92.30;;;;;;4909245;29;20207;-83
2022/09/12 12:49:09;;;;;;;2.80;2.60;;;23.90;92.90;;;;;;4908454;29;20207;-84
2022/09/12 12:52:00;;;;;;;4.00;2.90;;;24.90;92.00;;;;;;4938144;29;20190;-83
2022/09/12 12:54:43;;;;;;;3.10;2.80;;;24.90;89.70;;;;;;4948832;29;20199;-83
2022/09/12 12:57:40;;;;;;;3.00;2.80;;;25.10;87.10;;;;;;4934136;29;20203;-83
2022/09/12 13:00:25;;;;;;;3.55;3.25;;;25.40;86.90;;;;;;4929602;29;20225;-84
2022/09/12 13:02:58;;;;;;;2.85;2.60;;;25.40;86.50;;;;;;4913579;29;20229;-84
2022/09/12 13:05:29;;;;;;;3.08;2.88;;;25.10;83.90;;;;;;4929922;29;20218;-83